sensor_id;sensor_type;location;lat;lon;timestamp;P1;durP1;ratioP1;P2;durP2;ratioP2
71174;SDS011;58876;51.994;4.472;2023-07-31T00:01:58;10.86;;;9.29;;
71174;SDS011;58876;51.994;4.472;2023-07-31T00:04:26;11.05;;;9.51;;
71174;SDS011;58876;51.994;4.472;2023-07-31T00:06:52;10.55;;;9.09;;
71174;SDS011;58876;51.994;4.472;2023-07-31T00:09:18;10.59;;;9.15;;
71174;SDS011;58876;51.994;4.472;2023-07-31T00:11:43;10.56;;;9.26;;
71174;SDS011;58876;51.994;4.472;2023-07-31T00:14:09;9.95;;;8.80;;
71174;SDS011;58876;51.994;4.472;2023-07-31T00:16:34;10.58;;;9.08;;
71174;SDS011;58876;51.994;4.472;2023-07-31T00:19:00;10.53;;;8.78;;
71174;SDS011;58876;51.994;4.472;2023-07-31T00:21:28;11.91;;;10.09;;
71174;SDS011;58876;51.994;4.472;2023-07-31T00:23:54;10.72;;;9.21;;
71174;SDS011;58876;51.994;4.472;2023-07-31T00:26:19;10.39;;;9.03;;
71174;SDS011;58876;51.994;4.472;2023-07-31T00:28:45;10.16;;;9.03;;
71174;SDS011;58876;51.994;4.472;2023-07-31T00:31:10;10.90;;;9.57;;
71174;SDS011;58876;51.994;4.472;2023-07-31T00:33:37;11.47;;;9.91;;
71174;SDS011;58876;51.994;4.472;2023-07-31T00:36:08;11.70;;;10.22;;
71174;SDS011;58876;51.994;4.472;2023-07-31T00:38:43;10.99;;;9.48;;
71174;SDS011;58876;51.994;4.472;2023-07-31T00:41:11;12.59;;;10.71;;
71174;SDS011;58876;51.994;4.472;2023-07-31T00:43:36;12.25;;;10.59;;
71174;SDS011;58876;51.994;4.472;2023-07-31T00:46:02;12.17;;;10.71;;
71174;SDS011;58876;51.994;4.472;2023-07-31T00:48:30;12.92;;;10.98;;
71174;SDS011;58876;51.994;4.472;2023-07-31T00:51:00;11.73;;;10.16;;
71174;SDS011;58876;51.994;4.472;2023-07-31T00:53:26;10.98;;;9.68;;
71174;SDS011;58876;51.994;4.472;2023-07-31T00:55:53;9.76;;;8.67;;
71174;SDS011;58876;51.994;4.472;2023-07-31T00:58:19;9.61;;;8.63;;
71174;SDS011;58876;51.994;4.472;2023-07-31T01:00:45;8.91;;;8.26;;
71174;SDS011;58876;51.994;4.472;2023-07-31T01:03:10;8.51;;;7.78;;
71174;SDS011;58876;51.994;4.472;2023-07-31T01:11:07;6.26;;;5.95;;
71174;SDS011;58876;51.994;4.472;2023-07-31T01:13:51;6.79;;;6.45;;
71174;SDS011;58876;51.994;4.472;2023-07-31T01:16:16;6.96;;;6.33;;
71174;SDS011;58876;51.994;4.472;2023-07-31T01:18:45;7.82;;;7.15;;
71174;SDS011;58876;51.994;4.472;2023-07-31T01:32:49;10.63;;;9.51;;
71174;SDS011;58876;51.994;4.472;2023-07-31T01:35:18;10.07;;;9.07;;
71174;SDS011;58876;51.994;4.472;2023-07-31T01:37:43;10.65;;;9.53;;
71174;SDS011;58876;51.994;4.472;2023-07-31T01:40:10;10.82;;;9.55;;
71174;SDS011;58876;51.994;4.472;2023-07-31T01:42:36;10.89;;;9.51;;
71174;SDS011;58876;51.994;4.472;2023-07-31T01:45:01;10.58;;;9.17;;
71174;SDS011;58876;51.994;4.472;2023-07-31T01:47:27;9.98;;;8.62;;
71174;SDS011;58876;51.994;4.472;2023-07-31T01:49:53;10.86;;;9.27;;
71174;SDS011;58876;51.994;4.472;2023-07-31T01:52:18;10.20;;;8.81;;
71174;SDS011;58876;51.994;4.472;2023-07-31T01:54:43;10.49;;;8.97;;
71174;SDS011;58876;51.994;4.472;2023-07-31T01:57:09;10.40;;;9.06;;
71174;SDS011;58876;51.994;4.472;2023-07-31T01:59:35;9.48;;;8.58;;
71174;SDS011;58876;51.994;4.472;2023-07-31T02:02:00;9.55;;;8.57;;
71174;SDS011;58876;51.994;4.472;2023-07-31T02:04:26;10.85;;;9.60;;
71174;SDS011;58876;51.994;4.472;2023-07-31T02:06:52;10.82;;;9.35;;
71174;SDS011;58876;51.994;4.472;2023-07-31T02:09:18;11.02;;;9.79;;
71174;SDS011;58876;51.994;4.472;2023-07-31T02:11:43;10.90;;;9.56;;
71174;SDS011;58876;51.994;4.472;2023-07-31T02:14:09;11.45;;;10.26;;
71174;SDS011;58876;51.994;4.472;2023-07-31T02:16:34;10.93;;;9.56;;
71174;SDS011;58876;51.994;4.472;2023-07-31T02:19:00;11.71;;;10.22;;
71174;SDS011;58876;51.994;4.472;2023-07-31T02:21:25;11.36;;;9.92;;
71174;SDS011;58876;51.994;4.472;2023-07-31T02:23:51;11.27;;;9.89;;
71174;SDS011;58876;51.994;4.472;2023-07-31T02:26:16;10.44;;;9.44;;
71174;SDS011;58876;51.994;4.472;2023-07-31T02:28:42;10.54;;;9.69;;
71174;SDS011;58876;51.994;4.472;2023-07-31T02:31:08;10.17;;;9.23;;
71174;SDS011;58876;51.994;4.472;2023-07-31T02:33:34;10.15;;;9.18;;
71174;SDS011;58876;51.994;4.472;2023-07-31T02:35:59;10.76;;;9.52;;
71174;SDS011;58876;51.994;4.472;2023-07-31T02:38:25;10.22;;;9.14;;
71174;SDS011;58876;51.994;4.472;2023-07-31T02:40:50;10.31;;;9.52;;
71174;SDS011;58876;51.994;4.472;2023-07-31T02:43:16;10.09;;;9.49;;
71174;SDS011;58876;51.994;4.472;2023-07-31T02:45:41;9.38;;;9.03;;
71174;SDS011;58876;51.994;4.472;2023-07-31T02:48:07;9.03;;;8.52;;
71174;SDS011;58876;51.994;4.472;2023-07-31T02:50:32;9.42;;;8.73;;
71174;SDS011;58876;51.994;4.472;2023-07-31T02:52:58;9.17;;;8.57;;
71174;SDS011;58876;51.994;4.472;2023-07-31T02:55:24;8.53;;;7.90;;
71174;SDS011;58876;51.994;4.472;2023-07-31T02:57:49;9.50;;;8.53;;
71174;SDS011;58876;51.994;4.472;2023-07-31T03:00:17;9.32;;;8.16;;
71174;SDS011;58876;51.994;4.472;2023-07-31T03:02:42;9.41;;;8.30;;
71174;SDS011;58876;51.994;4.472;2023-07-31T03:05:08;9.22;;;8.18;;
71174;SDS011;58876;51.994;4.472;2023-07-31T03:07:33;9.43;;;8.37;;
71174;SDS011;58876;51.994;4.472;2023-07-31T03:09:59;9.64;;;8.46;;
71174;SDS011;58876;51.994;4.472;2023-07-31T03:12:24;8.79;;;8.01;;
71174;SDS011;58876;51.994;4.472;2023-07-31T03:14:50;9.04;;;8.25;;
71174;SDS011;58876;51.994;4.472;2023-07-31T03:17:15;9.33;;;8.48;;
71174;SDS011;58876;51.994;4.472;2023-07-31T03:19:41;8.62;;;7.84;;
71174;SDS011;58876;51.994;4.472;2023-07-31T03:22:06;8.81;;;7.99;;
71174;SDS011;58876;51.994;4.472;2023-07-31T03:24:32;8.66;;;8.02;;
71174;SDS011;58876;51.994;4.472;2023-07-31T03:26:57;9.09;;;8.26;;
71174;SDS011;58876;51.994;4.472;2023-07-31T03:29:23;8.90;;;8.14;;
71174;SDS011;58876;51.994;4.472;2023-07-31T03:31:48;9.13;;;8.41;;
71174;SDS011;58876;51.994;4.472;2023-07-31T03:34:14;8.23;;;7.56;;
71174;SDS011;58876;51.994;4.472;2023-07-31T03:36:39;8.71;;;7.91;;
71174;SDS011;58876;51.994;4.472;2023-07-31T03:39:05;8.71;;;7.82;;
71174;SDS011;58876;51.994;4.472;2023-07-31T03:41:30;8.42;;;7.67;;
71174;SDS011;58876;51.994;4.472;2023-07-31T03:43:56;7.99;;;7.31;;
71174;SDS011;58876;51.994;4.472;2023-07-31T03:46:22;7.83;;;7.27;;
71174;SDS011;58876;51.994;4.472;2023-07-31T03:48:48;8.04;;;7.51;;
71174;SDS011;58876;51.994;4.472;2023-07-31T03:51:14;7.56;;;7.13;;
71174;SDS011;58876;51.994;4.472;2023-07-31T03:53:39;7.59;;;7.01;;
71174;SDS011;58876;51.994;4.472;2023-07-31T03:56:05;7.95;;;7.26;;
71174;SDS011;58876;51.994;4.472;2023-07-31T03:58:30;7.04;;;6.50;;
71174;SDS011;58876;51.994;4.472;2023-07-31T04:00:56;5.79;;;5.46;;
71174;SDS011;58876;51.994;4.472;2023-07-31T04:03:21;4.86;;;4.51;;
71174;SDS011;58876;51.994;4.472;2023-07-31T04:05:47;4.14;;;3.96;;
71174;SDS011;58876;51.994;4.472;2023-07-31T04:08:12;3.49;;;3.37;;
71174;SDS011;58876;51.994;4.472;2023-07-31T04:10:38;3.85;;;3.71;;
71174;SDS011;58876;51.994;4.472;2023-07-31T04:13:03;4.28;;;4.08;;
71174;SDS011;58876;51.994;4.472;2023-07-31T04:15:29;4.35;;;4.22;;
71174;SDS011;58876;51.994;4.472;2023-07-31T04:17:54;3.64;;;3.60;;
71174;SDS011;58876;51.994;4.472;2023-07-31T04:20:20;3.39;;;3.39;;
71174;SDS011;58876;51.994;4.472;2023-07-31T04:22:46;3.13;;;3.13;;
71174;SDS011;58876;51.994;4.472;2023-07-31T04:25:11;3.48;;;3.45;;
71174;SDS011;58876;51.994;4.472;2023-07-31T04:27:37;3.20;;;3.16;;
71174;SDS011;58876;51.994;4.472;2023-07-31T04:30:05;3.40;;;3.40;;
71174;SDS011;58876;51.994;4.472;2023-07-31T04:32:32;3.17;;;3.17;;
71174;SDS011;58876;51.994;4.472;2023-07-31T04:34:57;3.13;;;3.13;;
71174;SDS011;58876;51.994;4.472;2023-07-31T04:37:23;3.68;;;3.68;;
71174;SDS011;58876;51.994;4.472;2023-07-31T04:39:48;3.40;;;3.40;;
71174;SDS011;58876;51.994;4.472;2023-07-31T04:45:11;3.99;;;3.99;;
71174;SDS011;58876;51.994;4.472;2023-07-31T04:47:37;4.30;;;4.30;;
71174;SDS011;58876;51.994;4.472;2023-07-31T04:50:08;4.41;;;4.41;;
71174;SDS011;58876;51.994;4.472;2023-07-31T04:52:42;4.70;;;4.70;;
71174;SDS011;58876;51.994;4.472;2023-07-31T04:55:13;4.70;;;4.70;;
71174;SDS011;58876;51.994;4.472;2023-07-31T04:57:51;4.52;;;4.52;;
71174;SDS011;58876;51.994;4.472;2023-07-31T05:00:48;4.31;;;4.31;;
71174;SDS011;58876;51.994;4.472;2023-07-31T05:03:22;4.53;;;4.53;;
71174;SDS011;58876;51.994;4.472;2023-07-31T05:06:10;4.44;;;4.44;;
71174;SDS011;58876;51.994;4.472;2023-07-31T05:08:54;4.53;;;4.53;;
71174;SDS011;58876;51.994;4.472;2023-07-31T05:11:23;4.15;;;4.15;;
71174;SDS011;58876;51.994;4.472;2023-07-31T05:13:51;4.21;;;4.21;;
71174;SDS011;58876;51.994;4.472;2023-07-31T05:16:16;4.10;;;4.10;;
71174;SDS011;58876;51.994;4.472;2023-07-31T05:18:42;3.77;;;3.77;;
71174;SDS011;58876;51.994;4.472;2023-07-31T05:21:08;4.12;;;4.12;;
71174;SDS011;58876;51.994;4.472;2023-07-31T05:23:44;3.80;;;3.80;;
71174;SDS011;58876;51.994;4.472;2023-07-31T05:26:09;3.50;;;3.50;;
71174;SDS011;58876;51.994;4.472;2023-07-31T05:31:51;3.59;;;3.59;;
71174;SDS011;58876;51.994;4.472;2023-07-31T05:34:21;3.45;;;3.45;;
71174;SDS011;58876;51.994;4.472;2023-07-31T05:36:47;3.15;;;3.15;;
71174;SDS011;58876;51.994;4.472;2023-07-31T05:39:16;3.04;;;3.04;;
71174;SDS011;58876;51.994;4.472;2023-07-31T05:41:52;2.97;;;2.97;;
71174;SDS011;58876;51.994;4.472;2023-07-31T05:44:17;2.86;;;2.86;;
71174;SDS011;58876;51.994;4.472;2023-07-31T05:46:43;3.22;;;3.22;;
71174;SDS011;58876;51.994;4.472;2023-07-31T05:49:19;2.85;;;2.85;;
71174;SDS011;58876;51.994;4.472;2023-07-31T05:54:57;2.85;;;2.85;;
71174;SDS011;58876;51.994;4.472;2023-07-31T05:57:46;2.64;;;2.64;;
71174;SDS011;58876;51.994;4.472;2023-07-31T06:00:15;2.69;;;2.69;;
71174;SDS011;58876;51.994;4.472;2023-07-31T06:02:43;2.75;;;2.75;;
71174;SDS011;58876;51.994;4.472;2023-07-31T06:05:26;2.58;;;2.58;;
71174;SDS011;58876;51.994;4.472;2023-07-31T06:08:22;2.52;;;2.52;;
71174;SDS011;58876;51.994;4.472;2023-07-31T06:11:05;2.70;;;2.70;;
71174;SDS011;58876;51.994;4.472;2023-07-31T06:14:01;2.21;;;2.21;;
71174;SDS011;58876;51.994;4.472;2023-07-31T06:17:00;2.08;;;2.08;;
71174;SDS011;58876;51.994;4.472;2023-07-31T06:26:24;1.75;;;1.75;;
71174;SDS011;58876;51.994;4.472;2023-07-31T10:51:41;3.86;;;3.33;;
71174;SDS011;58876;51.994;4.472;2023-07-31T10:54:41;4.19;;;3.50;;
71174;SDS011;58876;51.994;4.472;2023-07-31T11:00:45;3.96;;;3.33;;
71174;SDS011;58876;51.994;4.472;2023-07-31T11:07:07;3.46;;;3.07;;
71174;SDS011;58876;51.994;4.472;2023-07-31T11:09:54;3.26;;;2.85;;
71174;SDS011;58876;51.994;4.472;2023-07-31T11:15:45;3.46;;;3.19;;
71174;SDS011;58876;51.994;4.472;2023-07-31T11:18:40;2.83;;;2.56;;
71174;SDS011;58876;51.994;4.472;2023-07-31T11:21:29;2.75;;;2.49;;
71174;SDS011;58876;51.994;4.472;2023-07-31T11:24:45;2.84;;;2.61;;
71174;SDS011;58876;51.994;4.472;2023-07-31T11:27:46;3.09;;;2.78;;
71174;SDS011;58876;51.994;4.472;2023-07-31T11:30:33;3.12;;;2.82;;
71174;SDS011;58876;51.994;4.472;2023-07-31T11:33:32;3.71;;;3.34;;
71174;SDS011;58876;51.994;4.472;2023-07-31T11:36:41;3.16;;;2.85;;
71174;SDS011;58876;51.994;4.472;2023-07-31T11:39:25;2.95;;;2.64;;
71174;SDS011;58876;51.994;4.472;2023-07-31T11:45:58;2.32;;;2.32;;
71174;SDS011;58876;51.994;4.472;2023-07-31T11:49:07;2.78;;;2.58;;
71174;SDS011;58876;51.994;4.472;2023-07-31T11:51:39;3.13;;;2.85;;
71174;SDS011;58876;51.994;4.472;2023-07-31T11:54:27;2.57;;;2.46;;
71174;SDS011;58876;51.994;4.472;2023-07-31T12:00:01;2.06;;;2.06;;
71174;SDS011;58876;51.994;4.472;2023-07-31T12:02:40;2.55;;;2.54;;
71174;SDS011;58876;51.994;4.472;2023-07-31T12:12:13;2.61;;;2.61;;
71174;SDS011;58876;51.994;4.472;2023-07-31T12:14:55;2.25;;;2.25;;
71174;SDS011;58876;51.994;4.472;2023-07-31T12:17:53;2.57;;;2.57;;
71174;SDS011;58876;51.994;4.472;2023-07-31T12:20:30;2.62;;;2.62;;
71174;SDS011;58876;51.994;4.472;2023-07-31T12:26:16;2.49;;;2.49;;
71174;SDS011;58876;51.994;4.472;2023-07-31T12:38:05;2.68;;;2.68;;
71174;SDS011;58876;51.994;4.472;2023-07-31T12:41:12;3.05;;;3.05;;
71174;SDS011;58876;51.994;4.472;2023-07-31T12:43:53;2.62;;;2.62;;
71174;SDS011;58876;51.994;4.472;2023-07-31T12:46:39;3.04;;;3.04;;
71174;SDS011;58876;51.994;4.472;2023-07-31T12:49:20;2.88;;;2.88;;
71174;SDS011;58876;51.994;4.472;2023-07-31T12:51:51;2.81;;;2.81;;
71174;SDS011;58876;51.994;4.472;2023-07-31T12:54:42;2.84;;;2.84;;
71174;SDS011;58876;51.994;4.472;2023-07-31T12:57:13;2.51;;;2.51;;
71174;SDS011;58876;51.994;4.472;2023-07-31T12:59:49;2.17;;;2.17;;
71174;SDS011;58876;51.994;4.472;2023-07-31T13:05:39;2.25;;;2.25;;
71174;SDS011;58876;51.994;4.472;2023-07-31T13:08:17;2.20;;;2.20;;
71174;SDS011;58876;51.994;4.472;2023-07-31T13:10:47;2.08;;;2.08;;
71174;SDS011;58876;51.994;4.472;2023-07-31T13:13:31;2.46;;;2.46;;
71174;SDS011;58876;51.994;4.472;2023-07-31T13:15:59;2.08;;;2.08;;
71174;SDS011;58876;51.994;4.472;2023-07-31T13:21:03;1.55;;;1.55;;
71174;SDS011;58876;51.994;4.472;2023-07-31T13:23:31;1.64;;;1.64;;
71174;SDS011;58876;51.994;4.472;2023-07-31T13:26:25;1.52;;;1.52;;
71174;SDS011;58876;51.994;4.472;2023-07-31T13:53:04;1.02;;;1.02;;
71174;SDS011;58876;51.994;4.472;2023-07-31T13:56:14;0.94;;;0.94;;
71174;SDS011;58876;51.994;4.472;2023-07-31T14:27:19;0.91;;;0.91;;
71174;SDS011;58876;51.994;4.472;2023-07-31T14:37:26;0.92;;;0.92;;
71174;SDS011;58876;51.994;4.472;2023-07-31T17:34:04;2.71;;;2.34;;
71174;SDS011;58876;51.994;4.472;2023-07-31T17:37:33;2.75;;;2.30;;
71174;SDS011;58876;51.994;4.472;2023-07-31T18:01:58;3.26;;;2.65;;
71174;SDS011;58876;51.994;4.472;2023-07-31T18:05:12;3.34;;;2.66;;
71174;SDS011;58876;51.994;4.472;2023-07-31T18:14:44;3.27;;;2.68;;
71174;SDS011;58876;51.994;4.472;2023-07-31T18:17:37;3.37;;;2.78;;
71174;SDS011;58876;51.994;4.472;2023-07-31T18:55:10;1.98;;;1.86;;
71174;SDS011;58876;51.994;4.472;2023-07-31T19:12:03;1.98;;;1.93;;
71174;SDS011;58876;51.994;4.472;2023-07-31T19:14:39;2.13;;;2.11;;
71174;SDS011;58876;51.994;4.472;2023-07-31T19:20:43;2.16;;;2.06;;
71174;SDS011;58876;51.994;4.472;2023-07-31T19:24:20;2.07;;;1.97;;
71174;SDS011;58876;51.994;4.472;2023-07-31T19:44:08;3.47;;;2.94;;
71174;SDS011;58876;51.994;4.472;2023-07-31T20:07:21;2.88;;;2.47;;
71174;SDS011;58876;51.994;4.472;2023-07-31T20:26:40;2.50;;;2.28;;
71174;SDS011;58876;51.994;4.472;2023-07-31T20:32:51;2.48;;;2.21;;
71174;SDS011;58876;51.994;4.472;2023-07-31T20:35:40;2.65;;;2.36;;
71174;SDS011;58876;51.994;4.472;2023-07-31T20:48:17;2.63;;;2.28;;
71174;SDS011;58876;51.994;4.472;2023-07-31T20:54:34;2.89;;;2.53;;
71174;SDS011;58876;51.994;4.472;2023-07-31T21:20:28;2.66;;;2.39;;
71174;SDS011;58876;51.994;4.472;2023-07-31T21:57:05;1.93;;;1.90;;
71174;SDS011;58876;51.994;4.472;2023-07-31T22:00:42;2.13;;;2.10;;
71174;SDS011;58876;51.994;4.472;2023-07-31T22:03:43;2.26;;;2.25;;
71174;SDS011;58876;51.994;4.472;2023-07-31T22:06:50;2.01;;;1.99;;
71174;SDS011;58876;51.994;4.472;2023-07-31T22:19:19;2.07;;;2.04;;
71174;SDS011;58876;51.994;4.472;2023-07-31T22:22:20;2.07;;;2.05;;
71174;SDS011;58876;51.994;4.472;2023-07-31T22:35:27;2.27;;;2.26;;
71174;SDS011;58876;51.994;4.472;2023-07-31T22:38:30;2.40;;;2.40;;
71174;SDS011;58876;51.994;4.472;2023-07-31T22:45:17;2.56;;;2.52;;
71174;SDS011;58876;51.994;4.472;2023-07-31T22:48:11;2.47;;;2.44;;
71174;SDS011;58876;51.994;4.472;2023-07-31T22:54:50;3.04;;;2.95;;
71174;SDS011;58876;51.994;4.472;2023-07-31T23:11:24;2.84;;;2.77;;
71174;SDS011;58876;51.994;4.472;2023-07-31T23:14:09;3.71;;;3.61;;
71174;SDS011;58876;51.994;4.472;2023-07-31T23:36:31;3.68;;;3.66;;
71174;SDS011;58876;51.994;4.472;2023-07-31T23:42:30;3.74;;;3.66;;
